Time;durP1;ratioP1;P1;durP2;ratioP2;P2;SDS_P1;SDS_P2;PMS_P1;PMS_P2;Temp;Humidity;BMP_temperature;BMP_pressure;BME280_temperature;BME280_humidity;BME280_pressure;Samples;Min_cycle;Max_cycle;Signal;HPM_P1;HPM_P2
2022/03/27 00:02:06;;;;;;;;;;;22.90;26.30;;;;;;4815688;29;20023;-59
2022/03/27 00:04:33;;;;;;;;;;;22.90;26.30;;;;;;4817759;29;20342;-59
2022/03/27 00:07:00;;;;;;;;;;;22.90;26.30;;;;;;4832140;29;20295;-59
2022/03/27 00:09:27;;;;;;;;;;;22.90;26.30;;;;;;4818052;29;19960;-59
2022/03/27 00:11:54;;;;;;;;;;;22.90;26.30;;;;;;4818049;29;20066;-59
2022/03/27 00:14:21;;;;;;;;;;;22.90;26.30;;;;;;4818348;29;19929;-59
2022/03/27 00:16:48;;;;;;;;;;;22.90;26.30;;;;;;4817542;29;20024;-59
2022/03/27 00:19:16;;;;;;;;;;;22.90;26.30;;;;;;4818401;29;20322;-59
2022/03/27 00:21:44;;;;;;;;;;;22.90;26.30;;;;;;4817113;29;20228;-59
2022/03/27 00:24:11;;;;;;;;;;;22.90;26.30;;;;;;4817598;29;19928;-59
2022/03/27 00:26:39;;;;;;;;;;;22.80;26.30;;;;;;4818207;29;19929;-59
2022/03/27 00:29:06;;;;;;;;;;;22.90;26.40;;;;;;4817728;29;20024;-59
2022/03/27 00:31:35;;;;;;;;;;;22.80;26.40;;;;;;4813439;29;19972;-59
2022/03/27 00:34:03;;;;;;;;;;;22.80;26.40;;;;;;4817826;29;19993;-59
2022/03/27 00:36:31;;;;;;;;;;;22.80;26.40;;;;;;4817870;29;20011;-59
2022/03/27 00:38:58;;;;;;;;;;;22.80;26.40;;;;;;4817958;29;20421;-59
2022/03/27 00:41:26;;;;;;;;;;;22.80;26.40;;;;;;4817931;29;20014;-59
2022/03/27 00:43:53;;;;;;;;;;;22.80;26.40;;;;;;4817915;29;19971;-59
2022/03/27 00:46:20;;;;;;;;;;;22.80;26.40;;;;;;4817399;29;20485;-59
2022/03/27 00:48:47;;;;;;;;;;;22.80;26.40;;;;;;4817697;29;20140;-59
2022/03/27 00:51:14;;;;;;;;;;;22.80;26.40;;;;;;4817673;29;19975;-59
2022/03/27 00:53:42;;;;;;;;;;;22.80;26.40;;;;;;4817967;29;19972;-59
2022/03/27 00:56:09;;;;;;;;;;;22.80;26.40;;;;;;4817351;29;20133;-59
2022/03/27 00:58:36;;;;;;;;;;;22.80;26.40;;;;;;4817883;29;19968;-59
2022/03/27 01:01:15;;;;;;;;;;;22.80;26.40;;;;;;4817277;29;19929;-59
2022/03/27 01:03:43;;;;;;;;;;;22.80;26.40;;;;;;4813331;29;19932;-59
2022/03/27 01:06:17;;;;;;;;;;;22.80;26.40;;;;;;4817335;29;20387;-59
2022/03/27 01:11:31;;;;;;;;;;;22.80;26.50;;;;;;4817298;29;19977;-59
2022/03/27 01:13:58;;;;;;;;;;;22.80;26.50;;;;;;4817342;29;20019;-59
2022/03/27 01:16:37;;;;;;;;;;;22.80;26.50;;;;;;4817786;29;19929;-59
2022/03/27 01:19:06;;;;;;;;;;;22.80;26.50;;;;;;4817256;29;19935;-59
2022/03/27 01:21:37;;;;;;;;;;;22.80;26.50;;;;;;4816745;29;19967;-59
2022/03/27 01:24:04;;;;;;;;;;;22.70;26.40;;;;;;4820036;29;20355;-59
2022/03/27 01:26:31;;;;;;;;;;;22.70;26.40;;;;;;4820626;29;20487;-59
2022/03/27 01:28:58;;;;;;;;;;;22.70;26.50;;;;;;4820317;29;19979;-59
2022/03/27 01:31:25;;;;;;;;;;;22.70;26.50;;;;;;4820400;29;20023;-59
2022/03/27 01:33:53;;;;;;;;;;;22.70;26.50;;;;;;4820312;29;19976;-59
2022/03/27 01:36:24;;;;;;;;;;;22.70;26.50;;;;;;4816027;29;19929;-59
2022/03/27 01:38:52;;;;;;;;;;;22.70;26.50;;;;;;4820787;29;19929;-59
2022/03/27 01:41:19;;;;;;;;;;;22.70;26.50;;;;;;4820262;29;19951;-59
2022/03/27 01:43:46;;;;;;;;;;;22.70;26.50;;;;;;4820386;29;20072;-59
2022/03/27 01:46:14;;;;;;;;;;;22.70;26.50;;;;;;4820175;29;19929;-59
2022/03/27 01:48:41;;;;;;;;;;;22.70;26.50;;;;;;4818932;29;19929;-59
2022/03/27 01:51:08;;;;;;;;;;;22.70;26.50;;;;;;4834385;29;19928;-59
2022/03/27 01:53:39;;;;;;;;;;;22.70;26.60;;;;;;4820029;29;20048;-59
2022/03/27 01:56:07;;;;;;;;;;;22.70;26.60;;;;;;4819881;29;20403;-59
2022/03/27 01:58:38;;;;;;;;;;;22.70;26.60;;;;;;4820191;29;19929;-59
2022/03/27 02:01:06;;;;;;;;;;;22.70;26.60;;;;;;4819113;29;19986;-59
2022/03/27 02:03:33;;;;;;;;;;;22.70;26.60;;;;;;4820566;29;19936;-59
2022/03/27 02:06:01;;;;;;;;;;;22.70;26.60;;;;;;4815251;29;20261;-59
2022/03/27 02:08:28;;;;;;;;;;;22.60;26.50;;;;;;4819445;29;20410;-58
2022/03/27 02:10:56;;;;;;;;;;;22.60;26.50;;;;;;4819901;29;20059;-59
2022/03/27 02:13:23;;;;;;;;;;;22.60;26.60;;;;;;4819558;29;19985;-59
2022/03/27 02:15:50;;;;;;;;;;;22.60;26.60;;;;;;4819790;29;19929;-59
2022/03/27 02:18:17;;;;;;;;;;;22.60;26.60;;;;;;4819469;29;20087;-59
2022/03/27 02:20:45;;;;;;;;;;;22.60;26.60;;;;;;4820561;29;19976;-59
2022/03/27 02:23:12;;;;;;;;;;;22.60;26.60;;;;;;4819529;29;20371;-59
2022/03/27 02:25:39;;;;;;;;;;;22.60;26.60;;;;;;4819670;29;20024;-59
2022/03/27 02:28:07;;;;;;;;;;;22.60;26.60;;;;;;4819513;29;19976;-59
2022/03/27 02:30:34;;;;;;;;;;;22.60;26.70;;;;;;4819470;29;20359;-59
2022/03/27 02:33:01;;;;;;;;;;;22.60;26.70;;;;;;4819562;29;20185;-59
2022/03/27 02:35:28;;;;;;;;;;;22.60;26.70;;;;;;4819331;29;20007;-59
2022/03/27 02:37:55;;;;;;;;;;;22.60;26.70;;;;;;4814561;29;20024;-59
2022/03/27 02:40:22;;;;;;;;;;;22.60;26.70;;;;;;4818288;29;19968;-59
2022/03/27 02:42:49;;;;;;;;;;;22.50;26.60;;;;;;4818190;29;19979;-59
2022/03/27 02:45:16;;;;;;;;;;;22.60;26.70;;;;;;4819611;29;19937;-59
2022/03/27 02:47:43;;;;;;;;;;;22.50;26.60;;;;;;4819062;29;20151;-59
2022/03/27 02:50:10;;;;;;;;;;;22.60;26.70;;;;;;4819259;29;20179;-58
2022/03/27 02:52:37;;;;;;;;;;;22.60;26.70;;;;;;4819421;29;19990;-59
2022/03/27 02:55:05;;;;;;;;;;;22.60;26.70;;;;;;4818617;29;20459;-59
2022/03/27 02:57:32;;;;;;;;;;;22.50;26.60;;;;;;4819059;29;19928;-58
2022/03/27 02:59:59;;;;;;;;;;;22.60;26.70;;;;;;4819022;29;20092;-59
2022/03/27 03:02:27;;;;;;;;;;;22.50;26.60;;;;;;4818040;29;20027;-59
2022/03/27 03:04:55;;;;;;;;;;;22.50;26.60;;;;;;4819023;29;19935;-59
2022/03/27 03:07:22;;;;;;;;;;;22.50;26.60;;;;;;4818862;29;20032;-59
2022/03/27 03:09:49;;;;;;;;;;;22.50;27.10;;;;;;4814668;29;20643;-59
2022/03/27 03:12:16;;;;;;;;;;;22.50;26.70;;;;;;4818809;29;20036;-59
2022/03/27 03:14:44;;;;;;;;;;;22.50;26.70;;;;;;4819134;29;19975;-59
2022/03/27 03:17:11;;;;;;;;;;;22.50;26.70;;;;;;4818938;29;19929;-58
2022/03/27 03:19:38;;;;;;;;;;;22.50;26.70;;;;;;4818826;29;20196;-58
2022/03/27 03:22:07;;;;;;;;;;;22.50;26.70;;;;;;4818648;29;20015;-59
2022/03/27 03:24:34;;;;;;;;;;;22.50;26.70;;;;;;4818064;29;20371;-59
2022/03/27 03:27:01;;;;;;;;;;;22.50;26.70;;;;;;4818921;29;19929;-59
2022/03/27 03:29:29;;;;;;;;;;;22.50;26.70;;;;;;4832668;29;19995;-60
2022/03/27 03:31:56;;;;;;;;;;;22.50;26.70;;;;;;4818946;29;20016;-59
2022/03/27 03:34:23;;;;;;;;;;;22.50;26.70;;;;;;4818470;29;19929;-59
2022/03/27 03:36:50;;;;;;;;;;;22.50;26.70;;;;;;4818618;29;20366;-59
2022/03/27 03:39:17;;;;;;;;;;;22.50;26.70;;;;;;4819053;29;19987;-59
2022/03/27 03:41:44;;;;;;;;;;;22.50;26.70;;;;;;4814390;29;20076;-58
2022/03/27 03:44:26;;;;;;;;;;;22.50;26.70;;;;;;4818249;29;19940;-59
2022/03/27 03:46:54;;;;;;;;;;;22.40;26.70;;;;;;4818868;29;19932;-59
2022/03/27 03:49:24;;;;;;;;;;;22.40;26.70;;;;;;4818271;29;19929;-59
2022/03/27 03:51:51;;;;;;;;;;;22.40;26.70;;;;;;4818941;29;19933;-59
2022/03/27 03:54:18;;;;;;;;;;;22.40;26.70;;;;;;4817976;29;19968;-59
2022/03/27 03:56:46;;;;;;;;;;;22.40;26.70;;;;;;4818815;29;19933;-59
2022/03/27 03:59:13;;;;;;;;;;;22.40;26.70;;;;;;4818500;29;20315;-59
2022/03/27 04:01:56;;;;;;;;;;;22.40;26.70;;;;;;4818441;29;20027;-59
2022/03/27 04:04:23;;;;;;;;;;;22.40;26.70;;;;;;4816321;29;20006;-59
2022/03/27 04:06:50;;;;;;;;;;;22.40;26.70;;;;;;4818405;29;19964;-59
2022/03/27 04:09:17;;;;;;;;;;;22.40;26.70;;;;;;4818256;29;19929;-59
2022/03/27 04:11:45;;;;;;;;;;;22.40;26.80;;;;;;4816154;29;19964;-59
2022/03/27 04:14:12;;;;;;;;;;;22.40;26.70;;;;;;4815502;29;19977;-58
2022/03/27 04:16:39;;;;;;;;;;;22.40;26.80;;;;;;4818306;29;19929;-58
2022/03/27 04:19:06;;;;;;;;;;;22.40;26.70;;;;;;4818024;29;20087;-59
2022/03/27 04:21:33;;;;;;;;;;;22.40;26.80;;;;;;4818384;29;20366;-59
2022/03/27 04:24:00;;;;;;;;;;;22.40;26.70;;;;;;4817710;29;19987;-59
2022/03/27 04:26:31;;;;;;;;;;;22.40;26.70;;;;;;4817870;29;19929;-59
2022/03/27 04:28:58;;;;;;;;;;;22.40;26.80;;;;;;4817375;29;20406;-59
2022/03/27 04:31:26;;;;;;;;;;;22.40;26.80;;;;;;4818189;29;20181;-59
2022/03/27 04:33:53;;;;;;;;;;;22.40;26.80;;;;;;4817632;29;19946;-59
2022/03/27 04:36:20;;;;;;;;;;;22.40;26.80;;;;;;4817708;29;20020;-59
2022/03/27 04:38:47;;;;;;;;;;;22.40;26.80;;;;;;4818357;29;20383;-59
2022/03/27 04:41:14;;;;;;;;;;;22.40;26.80;;;;;;4817675;29;20010;-59
2022/03/27 04:43:41;;;;;;;;;;;22.40;26.80;;;;;;4813567;29;20375;-59
2022/03/27 04:46:08;;;;;;;;;;;22.40;26.80;;;;;;4817407;29;20019;-59
2022/03/27 04:48:35;;;;;;;;;;;22.40;26.80;;;;;;4818258;29;20023;-59
2022/03/27 04:51:02;;;;;;;;;;;22.40;26.80;;;;;;4817022;29;19977;-59
2022/03/27 04:53:29;;;;;;;;;;;22.40;26.80;;;;;;4818135;29;20012;-59
2022/03/27 04:55:56;;;;;;;;;;;22.40;26.70;;;;;;4817493;29;19929;-59
2022/03/27 04:58:24;;;;;;;;;;;22.40;26.70;;;;;;4820390;29;20367;-59
2022/03/27 05:00:51;;;;;;;;;;;22.40;26.70;;;;;;4821005;29;19935;-59
2022/03/27 05:03:18;;;;;;;;;;;22.40;26.70;;;;;;4821260;29;19929;-60
2022/03/27 05:05:45;;;;;;;;;;;22.40;26.70;;;;;;4820614;29;19929;-59
2022/03/27 05:08:12;;;;;;;;;;;22.40;26.70;;;;;;4821221;29;20015;-59
2022/03/27 05:10:39;;;;;;;;;;;22.40;26.60;;;;;;4820678;29;19982;-59
2022/03/27 05:13:07;;;;;;;;;;;22.40;26.50;;;;;;4821037;29;20550;-59
2022/03/27 05:15:34;;;;;;;;;;;22.40;26.50;;;;;;4815922;29;20228;-59
2022/03/27 05:18:01;;;;;;;;;;;22.40;26.50;;;;;;4820704;29;19993;-59
2022/03/27 05:20:29;;;;;;;;;;;22.40;26.50;;;;;;4820496;29;19964;-59
2022/03/27 05:22:56;;;;;;;;;;;22.40;26.40;;;;;;4820594;29;20345;-59
2022/03/27 05:25:23;;;;;;;;;;;22.40;26.40;;;;;;4820275;29;20036;-59
2022/03/27 05:27:54;;;;;;;;;;;22.40;26.30;;;;;;4820687;29;20023;-59
2022/03/27 05:30:22;;;;;;;;;;;22.50;26.30;;;;;;4820338;29;19956;-59
2022/03/27 05:32:50;;;;;;;;;;;22.50;26.30;;;;;;4820784;29;19976;-59
2022/03/27 05:35:17;;;;;;;;;;;22.50;26.20;;;;;;4820028;29;20040;-60
2022/03/27 05:37:45;;;;;;;;;;;22.60;26.20;;;;;;4820318;29;19958;-59
2022/03/27 05:40:13;;;;;;;;;;;22.60;26.20;;;;;;4820069;29;20465;-59
2022/03/27 05:42:40;;;;;;;;;;;22.70;26.10;;;;;;4820551;29;20458;-59
2022/03/27 05:45:08;;;;;;;;;;;22.80;26.10;;;;;;4820298;29;19929;-59
2022/03/27 05:47:37;;;;;;;;;;;22.80;26.00;;;;;;4815333;29;20016;-59
2022/03/27 05:50:05;;;;;;;;;;;22.90;26.00;;;;;;4820346;29;20028;-58
2022/03/27 05:52:32;;;;;;;;;;;22.90;25.90;;;;;;4820409;29;19975;-59
2022/03/27 05:54:58;;;;;;;;;;;23.00;25.90;;;;;;4819461;29;20031;-59
2022/03/27 05:57:26;;;;;;;;;;;23.00;25.80;;;;;;4820174;29;19929;-59
2022/03/27 05:59:53;;;;;;;;;;;23.10;25.80;;;;;;4819879;29;19928;-60
2022/03/27 06:02:20;;;;;;;;;;;23.20;25.80;;;;;;4819989;29;20012;-59
2022/03/27 06:04:47;;;;;;;;;;;23.20;25.70;;;;;;4819511;29;19939;-59
2022/03/27 06:07:14;;;;;;;;;;;23.30;25.70;;;;;;4820126;29;19929;-59
2022/03/27 06:09:41;;;;;;;;;;;23.30;25.60;;;;;;4819748;29;19932;-59
2022/03/27 06:12:08;;;;;;;;;;;23.30;25.60;;;;;;4820022;29;19929;-59
2022/03/27 06:14:35;;;;;;;;;;;23.40;25.50;;;;;;4834668;29;19928;-59
2022/03/27 06:17:02;;;;;;;;;;;23.50;25.50;;;;;;4837924;29;20551;-59
2022/03/27 06:19:30;;;;;;;;;;;23.50;25.50;;;;;;4833433;29;20088;-59
2022/03/27 06:21:57;;;;;;;;;;;23.60;25.50;;;;;;4837282;29;19963;-59
2022/03/27 06:24:25;;;;;;;;;;;23.60;25.40;;;;;;4837058;29;20053;-59
2022/03/27 06:26:52;;;;;;;;;;;23.60;25.30;;;;;;4836686;29;19928;-59
2022/03/27 06:29:21;;;;;;;;;;;23.70;25.30;;;;;;4837354;29;20015;-59
2022/03/27 06:31:49;;;;;;;;;;;23.70;25.30;;;;;;4837051;29;19928;-59
2022/03/27 06:34:16;;;;;;;;;;;23.80;25.30;;;;;;4836981;29;19935;-59
2022/03/27 06:36:44;;;;;;;;;;;23.80;25.20;;;;;;4836649;29;20373;-59
2022/03/27 06:39:12;;;;;;;;;;;23.90;25.20;;;;;;4836883;29;19928;-59
2022/03/27 06:41:39;;;;;;;;;;;23.90;25.10;;;;;;4836315;29;20031;-59
2022/03/27 06:44:08;;;;;;;;;;;24.00;25.20;;;;;;4837258;29;19936;-59
2022/03/27 06:46:35;;;;;;;;;;;24.00;25.10;;;;;;4836565;29;20379;-59
2022/03/27 06:49:02;;;;;;;;;;;24.10;25.10;;;;;;4835265;29;20318;-59
2022/03/27 06:51:29;;;;;;;;;;;24.10;25.10;;;;;;4833979;29;20015;-59
2022/03/27 06:53:56;;;;;;;;;;;24.20;25.00;;;;;;4836783;29;19966;-59
2022/03/27 06:56:23;;;;;;;;;;;24.20;25.00;;;;;;4836336;29;20019;-59
2022/03/27 07:04:12;;;;;;;;;;;24.30;24.90;;;;;;5023038;24;20436;-59
2022/03/27 07:06:42;;;;;;;;;;;24.40;24.90;;;;;;4817476;29;19940;-59
2022/03/27 07:09:10;;;;;;;;;;;24.40;24.90;;;;;;4819155;29;20027;-59
2022/03/27 07:11:37;;;;;;;;;;;24.40;24.90;;;;;;4817387;29;19935;-59
2022/03/27 07:14:04;;;;;;;;;;;24.40;24.80;;;;;;4800825;29;20433;-59
2022/03/27 07:16:31;;;;;;;;;;;24.50;24.80;;;;;;4800891;29;20025;-59
2022/03/27 07:18:58;;;;;;;;;;;24.50;24.80;;;;;;4800063;29;19987;-59
2022/03/27 07:21:28;;;;;;;;;;;24.50;24.70;;;;;;4796127;29;19976;-59
2022/03/27 07:23:55;;;;;;;;;;;24.60;24.70;;;;;;4800335;29;19929;-59
2022/03/27 07:26:22;;;;;;;;;;;24.60;24.70;;;;;;4800924;29;19929;-59
2022/03/27 07:28:49;;;;;;;;;;;24.70;24.70;;;;;;4799281;29;20013;-59
2022/03/27 07:31:16;;;;;;;;;;;24.70;24.70;;;;;;4800373;29;20498;-59
2022/03/27 07:33:43;;;;;;;;;;;24.70;24.60;;;;;;4800797;29;20279;-60
2022/03/27 07:36:10;;;;;;;;;;;24.80;24.60;;;;;;4799832;29;19929;-59
2022/03/27 07:38:37;;;;;;;;;;;24.80;24.60;;;;;;4800593;29;19994;-59
2022/03/27 07:41:04;;;;;;;;;;;24.80;24.60;;;;;;4800195;29;19930;-59
2022/03/27 07:43:32;;;;;;;;;;;24.90;24.60;;;;;;4800445;29;20028;-59
2022/03/27 07:45:59;;;;;;;;;;;24.90;24.60;;;;;;4800356;29;19999;-59
2022/03/27 07:48:26;;;;;;;;;;;24.90;24.60;;;;;;4818921;29;19936;-59
2022/03/27 07:50:56;;;;;;;;;;;24.90;24.60;;;;;;4818263;29;19980;-59
2022/03/27 07:53:23;;;;;;;;;;;25.00;24.60;;;;;;4814244;29;19966;-59
2022/03/27 07:55:50;;;;;;;;;;;25.00;24.60;;;;;;4818202;29;20412;-59
2022/03/27 07:58:17;;;;;;;;;;;25.00;24.60;;;;;;4818808;29;19932;-59
2022/03/27 08:00:44;;;;;;;;;;;25.10;24.60;;;;;;4817560;29;19980;-59
2022/03/27 08:03:11;;;;;;;;;;;25.10;24.60;;;;;;4818211;29;19980;-59
2022/03/27 08:05:38;;;;;;;;;;;25.10;24.60;;;;;;4818463;29;19928;-59
2022/03/27 08:08:05;;;;;;;;;;;25.10;24.60;;;;;;4817919;29;19985;-59
2022/03/27 08:10:32;;;;;;;;;;;25.20;24.60;;;;;;4818376;29;19933;-59
2022/03/27 08:12:59;;;;;;;;;;;25.20;24.60;;;;;;4818567;29;19929;-59
2022/03/27 08:15:26;;;;;;;;;;;25.20;24.60;;;;;;4817679;29;20433;-59
2022/03/27 08:17:54;;;;;;;;;;;25.30;24.60;;;;;;4818503;29;19932;-59
2022/03/27 08:20:23;;;;;;;;;;;25.30;24.60;;;;;;4818102;29;19928;-59
2022/03/27 08:22:50;;;;;;;;;;;25.30;24.60;;;;;;4818712;29;19972;-60
2022/03/27 08:28:05;;;;;;;;;;;25.40;24.60;;;;;;4818132;29;20488;-59
2022/03/27 08:30:31;;;;;;;;;;;25.40;24.60;;;;;;4818549;29;19975;-59
2022/03/27 08:32:58;;;;;;;;;;;25.50;24.70;;;;;;4821679;29;20215;-59
2022/03/27 08:35:25;;;;;;;;;;;25.50;24.70;;;;;;4821977;29;19929;-59
2022/03/27 08:37:53;;;;;;;;;;;25.50;24.60;;;;;;4821689;29;19976;-60
2022/03/27 08:40:20;;;;;;;;;;;25.60;24.70;;;;;;4821304;29;19985;-59
2022/03/27 08:42:48;;;;;;;;;;;25.60;24.70;;;;;;4819834;29;19932;-59
2022/03/27 08:45:14;;;;;;;;;;;25.60;24.70;;;;;;4820350;29;20298;-59
2022/03/27 08:47:41;;;;;;;;;;;25.70;24.70;;;;;;4820157;29;20197;-59
2022/03/27 08:50:26;;;;;;;;;;;25.70;24.70;;;;;;4821314;29;20425;-59
2022/03/27 08:52:57;;;;;;;;;;;25.70;24.70;;;;;;4820464;29;19989;-59
2022/03/27 08:55:46;;;;;;;;;;;25.70;24.70;;;;;;4816446;29;20006;-59
2022/03/27 08:58:13;;;;;;;;;;;25.70;24.70;;;;;;4819692;29;19986;-59
2022/03/27 09:00:41;;;;;;;;;;;25.70;24.70;;;;;;4821383;29;20473;-59
2022/03/27 09:03:08;;;;;;;;;;;25.80;24.70;;;;;;4820862;29;19933;-59
2022/03/27 09:05:36;;;;;;;;;;;25.80;24.70;;;;;;4821006;29;20397;-59
2022/03/27 09:08:04;;;;;;;;;;;25.80;25.20;;;;;;4819399;29;19929;-59
2022/03/27 09:10:31;;;;;;;;;;;25.90;24.80;;;;;;4821327;29;20637;-59
2022/03/27 09:12:59;;;;;;;;;;;25.90;24.80;;;;;;4820643;29;20214;-60
2022/03/27 09:15:26;;;;;;;;;;;25.80;24.70;;;;;;4819412;29;19933;-59
2022/03/27 09:17:54;;;;;;;;;;;25.90;24.80;;;;;;4820308;29;19945;-59
2022/03/27 09:20:41;;;;;;;;;;;25.90;24.80;;;;;;4820401;29;20382;-59
2022/03/27 09:23:21;;;;;;;;;;;25.90;24.90;;;;;;4820694;29;20027;-59
2022/03/27 09:26:01;;;;;;;;;;;25.90;24.90;;;;;;4820954;29;19933;-59
2022/03/27 09:28:35;;;;;;;;;;;25.90;24.90;;;;;;4815973;29;20201;-59
2022/03/27 09:31:04;;;;;;;;;;;26.00;24.90;;;;;;4820777;29;19956;-59
2022/03/27 09:33:33;;;;;;;;;;;26.00;24.90;;;;;;4820684;29;19929;-59
2022/03/27 09:36:08;;;;;;;;;;;26.00;25.00;;;;;;4820380;29;20016;-59
2022/03/27 09:38:36;;;;;;;;;;;26.00;25.00;;;;;;4820341;29;19990;-59
2022/03/27 09:41:03;;;;;;;;;;;26.00;25.00;;;;;;4820929;29;20338;-60
2022/03/27 09:43:30;;;;;;;;;;;26.00;25.00;;;;;;4819067;29;19935;-59
2022/03/27 09:45:58;;;;;;;;;;;26.00;25.00;;;;;;4820139;29;20372;-59
2022/03/27 09:48:26;;;;;;;;;;;26.00;25.00;;;;;;4819529;29;20335;-59
2022/03/27 09:50:53;;;;;;;;;;;26.00;25.00;;;;;;4820242;29;20417;-59
2022/03/27 09:53:28;;;;;;;;;;;26.10;25.10;;;;;;4820698;29;19976;-59
2022/03/27 09:56:11;;;;;;;;;;;26.00;25.10;;;;;;4819996;29;19933;-59
2022/03/27 09:58:45;;;;;;;;;;;26.10;25.10;;;;;;4819290;29;19997;-59
2022/03/27 10:01:16;;;;;;;;;;;26.10;25.10;;;;;;4818137;29;19959;-59
2022/03/27 10:03:58;;;;;;;;;;;26.10;25.10;;;;;;4820036;29;19936;-59
2022/03/27 10:06:31;;;;;;;;;;;26.10;25.10;;;;;;4819952;29;20473;-59
2022/03/27 10:08:58;;;;;;;;;;;26.20;25.20;;;;;;4818778;29;19960;-59
2022/03/27 10:11:25;;;;;;;;;;;26.10;25.10;;;;;;4820333;29;20028;-59
2022/03/27 10:13:53;;;;;;;;;;;26.20;25.20;;;;;;4820422;29;20405;-59
2022/03/27 10:16:23;;;;;;;;;;;26.10;25.20;;;;;;4819239;29;19944;-59
2022/03/27 10:18:55;;;;;;;;;;;26.20;25.20;;;;;;4819846;29;20396;-59
2022/03/27 10:21:24;;;;;;;;;;;26.20;25.20;;;;;;4818414;29;19964;-59
2022/03/27 10:24:11;;;;;;;;;;;26.20;25.30;;;;;;4819924;29;19936;-59
2022/03/27 10:26:39;;;;;;;;;;;26.30;25.30;;;;;;4819480;29;20000;-59
2022/03/27 10:29:07;;;;;;;;;;;26.30;25.80;;;;;;4820146;29;19976;-59
2022/03/27 10:31:34;;;;;;;;;;;26.30;25.30;;;;;;4815690;29;20068;-59
2022/03/27 10:34:05;;;;;;;;;;;26.30;25.40;;;;;;4820010;29;20020;-59
2022/03/27 10:36:52;;;;;;;;;;;26.30;25.40;;;;;;4819638;29;19980;-59
2022/03/27 10:39:28;;;;;;;;;;;26.30;25.40;;;;;;4818711;29;19936;-59
2022/03/27 10:42:11;;;;;;;;;;;26.30;25.40;;;;;;4819248;29;19933;-59
2022/03/27 10:44:41;;;;;;;;;;;26.40;25.40;;;;;;4819384;29;20032;-59
2022/03/27 10:47:19;;;;;;;;;;;26.40;25.40;;;;;;4819685;29;19983;-59
2022/03/27 10:50:06;;;;;;;;;;;26.40;25.40;;;;;;4816420;29;19933;-59
2022/03/27 10:52:57;;;;;;;;;;;26.40;25.40;;;;;;4793518;29;19998;-59
2022/03/27 10:55:35;;;;;;;;;;;26.50;25.50;;;;;;4800002;29;20024;-59
2022/03/27 10:58:22;;;;;;;;;;;26.50;25.50;;;;;;4800297;29;20662;-59
2022/03/27 11:00:49;;;;;;;;;;;26.50;25.40;;;;;;4801507;29;20011;-59
2022/03/27 11:03:36;;;;;;;;;;;26.60;25.50;;;;;;4796207;29;19981;-60
2022/03/27 11:06:03;;;;;;;;;;;26.60;25.50;;;;;;4801037;29;19972;-59
2022/03/27 11:08:50;;;;;;;;;;;26.60;25.50;;;;;;4799349;29;20015;-59
2022/03/27 11:11:37;;;;;;;;;;;26.60;25.50;;;;;;4801204;29;19977;-60
2022/03/27 11:14:05;;;;;;;;;;;26.60;25.50;;;;;;4800906;29;19929;-59
2022/03/27 11:16:37;;;;;;;;;;;26.60;25.50;;;;;;4800845;29;19939;-59
2022/03/27 11:19:04;;;;;;;;;;;26.60;25.50;;;;;;4800725;29;19977;-59
2022/03/27 11:21:44;;;;;;;;;;;26.60;25.50;;;;;;4800447;29;19980;-59
2022/03/27 11:24:30;;;;;;;;;;;26.60;25.60;;;;;;4800764;29;20435;-59
2022/03/27 11:26:57;;;;;;;;;;;26.60;25.60;;;;;;4800570;29;19981;-59
2022/03/27 11:29:24;;;;;;;;;;;26.60;25.70;;;;;;4800702;29;19929;-59
2022/03/27 11:32:07;;;;;;;;;;;26.50;25.60;;;;;;4800505;29;20056;-59
2022/03/27 11:34:35;;;;;;;;;;;26.50;25.70;;;;;;4796421;29;19960;-59
2022/03/27 11:37:25;;;;;;;;;;;26.50;25.80;;;;;;4800291;29;19975;-59
2022/03/27 11:39:53;;;;;;;;;;;26.50;25.80;;;;;;4799064;29;19929;-59
2022/03/27 11:42:28;;;;;;;;;;;26.50;25.80;;;;;;4800431;29;19976;-59
2022/03/27 11:45:16;;;;;;;;;;;26.50;25.80;;;;;;4800702;29;19940;-59
2022/03/27 11:47:52;;;;;;;;;;;26.50;25.90;;;;;;4800026;29;19929;-59
2022/03/27 11:50:20;;;;;;;;;;;26.40;25.90;;;;;;4807045;29;20028;-59
2022/03/27 11:52:48;;;;;;;;;;;26.40;25.90;;;;;;4818723;29;20009;-59
2022/03/27 11:55:16;;;;;;;;;;;26.40;26.00;;;;;;4818458;29;20016;-59
2022/03/27 11:57:44;;;;;;;;;;;26.40;26.00;;;;;;4818585;29;20048;-59
2022/03/27 12:00:12;;;;;;;;;;;26.30;26.00;;;;;;4819081;29;19929;-59
2022/03/27 12:02:41;;;;;;;;;;;26.30;26.10;;;;;;4818135;29;19933;-59
2022/03/27 12:05:09;;;;;;;;;;;26.20;26.10;;;;;;4812499;29;19940;-59
2022/03/27 12:07:58;;;;;;;;;;;26.20;26.20;;;;;;4818410;29;19964;-59
2022/03/27 12:10:26;;;;;;;;;;;26.20;26.20;;;;;;4818424;29;19928;-59
2022/03/27 12:12:57;;;;;;;;;;;26.20;26.20;;;;;;4818540;29;20369;-59
2022/03/27 12:15:37;;;;;;;;;;;26.20;26.20;;;;;;4818278;29;20002;-59
2022/03/27 12:18:10;;;;;;;;;;;26.20;26.20;;;;;;4816959;29;19929;-59
2022/03/27 12:20:43;;;;;;;;;;;26.20;26.20;;;;;;4818675;29;19928;-59
2022/03/27 12:23:18;;;;;;;;;;;26.20;26.20;;;;;;4818198;29;20028;-59
2022/03/27 12:25:55;;;;;;;;;;;26.20;26.20;;;;;;4817906;29;19929;-59
2022/03/27 12:31:23;;;;;;;;;;;26.20;26.30;;;;;;4818314;29;19929;-59
2022/03/27 12:33:51;;;;;;;;;;;26.20;26.30;;;;;;4818054;29;19940;-59
2022/03/27 12:36:21;;;;;;;;;;;26.20;26.30;;;;;;4814761;29;20020;-59
2022/03/27 12:38:48;;;;;;;;;;;26.20;26.30;;;;;;4817869;29;20002;-59
2022/03/27 12:41:35;;;;;;;;;;;26.20;26.30;;;;;;4817947;29;20027;-59
2022/03/27 12:44:02;;;;;;;;;;;26.20;26.30;;;;;;4817708;29;20194;-59
2022/03/27 12:46:31;;;;;;;;;;;26.20;26.30;;;;;;4818167;29;19972;-59
2022/03/27 12:48:59;;;;;;;;;;;26.20;26.30;;;;;;4817871;29;20023;-59
2022/03/27 12:51:26;;;;;;;;;;;26.20;26.30;;;;;;4817981;29;19993;-59
2022/03/27 12:54:03;;;;;;;;;;;26.20;26.30;;;;;;4818004;29;20016;-59
2022/03/27 12:56:30;;;;;;;;;;;26.20;26.40;;;;;;4817994;29;20434;-59
2022/03/27 12:58:57;;;;;;;;;;;26.20;26.40;;;;;;4817718;29;19937;-59
2022/03/27 13:01:30;;;;;;;;;;;26.10;26.30;;;;;;4818177;29;19929;-59
2022/03/27 13:04:07;;;;;;;;;;;26.10;26.30;;;;;;4812205;29;19997;-59
2022/03/27 13:06:43;;;;;;;;;;;26.20;26.40;;;;;;4799197;29;20027;-59
2022/03/27 13:09:10;;;;;;;;;;;26.20;26.40;;;;;;4791534;29;20195;-59
2022/03/27 13:11:39;;;;;;;;;;;26.20;26.30;;;;;;4800378;29;20287;-59
2022/03/27 13:14:07;;;;;;;;;;;26.20;26.30;;;;;;4798016;29;20398;-59
2022/03/27 13:16:40;;;;;;;;;;;26.20;26.40;;;;;;4799402;29;20336;-59
2022/03/27 13:19:08;;;;;;;;;;;26.20;26.30;;;;;;4801786;29;20382;-59
2022/03/27 13:21:36;;;;;;;;;;;26.20;26.30;;;;;;4802836;29;20152;-59
2022/03/27 13:24:05;;;;;;;;;;;26.20;26.30;;;;;;4816851;29;20007;-59
2022/03/27 13:26:33;;;;;;;;;;;26.20;26.30;;;;;;4803147;29;19994;-59
2022/03/27 13:29:01;;;;;;;;;;;26.10;26.30;;;;;;4802874;29;20023;-59
2022/03/27 13:31:27;;;;;;;;;;;26.10;26.30;;;;;;4802871;29;19984;-59
2022/03/27 13:33:55;;;;;;;;;;;26.10;26.30;;;;;;4802086;29;20011;-59
2022/03/27 13:36:22;;;;;;;;;;;26.10;26.40;;;;;;4802964;29;19935;-58
2022/03/27 13:38:49;;;;;;;;;;;26.00;26.30;;;;;;4815847;29;19990;-58
2022/03/27 13:44:03;;;;;;;;;;;26.00;26.40;;;;;;4802154;29;19930;-59
2022/03/27 13:46:30;;;;;;;;;;;26.00;26.40;;;;;;4802473;29;19984;-59
2022/03/27 13:48:57;;;;;;;;;;;26.00;26.40;;;;;;4802426;29;20455;-59
2022/03/27 13:51:24;;;;;;;;;;;26.00;26.40;;;;;;4802470;29;20012;-59
2022/03/27 13:53:51;;;;;;;;;;;26.00;26.40;;;;;;4802102;29;19929;-59
2022/03/27 13:56:18;;;;;;;;;;;26.00;26.40;;;;;;4802226;29;20345;-59
2022/03/27 13:58:45;;;;;;;;;;;26.00;26.40;;;;;;4801946;29;20436;-59
2022/03/27 14:01:14;;;;;;;;;;;26.00;26.40;;;;;;4802773;29;19995;-59
2022/03/27 14:03:41;;;;;;;;;;;26.00;26.40;;;;;;4801678;29;20093;-59
2022/03/27 14:06:08;;;;;;;;;;;26.00;26.40;;;;;;4801901;29;20048;-59
2022/03/27 14:08:38;;;;;;;;;;;26.00;26.40;;;;;;4802277;29;19974;-59
2022/03/27 14:11:05;;;;;;;;;;;26.00;26.40;;;;;;4800078;29;20426;-59
2022/03/27 14:13:32;;;;;;;;;;;26.00;26.40;;;;;;4798951;29;20240;-59
2022/03/27 14:15:59;;;;;;;;;;;25.90;26.40;;;;;;4802055;29;20009;-59
2022/03/27 14:18:26;;;;;;;;;;;26.00;26.40;;;;;;4815443;29;19929;-59
2022/03/27 14:20:53;;;;;;;;;;;26.00;26.40;;;;;;4801749;29;19991;-59
2022/03/27 14:23:20;;;;;;;;;;;26.00;26.40;;;;;;4801676;29;19987;-58
2022/03/27 14:25:47;;;;;;;;;;;26.00;26.40;;;;;;4802291;29;20008;-59
2022/03/27 14:28:14;;;;;;;;;;;26.00;26.40;;;;;;4801377;29;20192;-59
2022/03/27 14:30:41;;;;;;;;;;;26.00;26.40;;;;;;4801300;29;19929;-59
2022/03/27 14:33:08;;;;;;;;;;;26.00;26.40;;;;;;4801822;29;19985;-59
2022/03/27 14:35:35;;;;;;;;;;;26.00;26.40;;;;;;4801812;29;19984;-59
2022/03/27 14:38:02;;;;;;;;;;;26.00;26.40;;;;;;4801679;29;19978;-59
2022/03/27 14:40:29;;;;;;;;;;;26.00;26.30;;;;;;4801524;29;20020;-59
2022/03/27 14:42:56;;;;;;;;;;;26.00;26.30;;;;;;4798688;29;19980;-59
2022/03/27 14:45:23;;;;;;;;;;;26.00;26.40;;;;;;4800122;29;19936;-59